Offerle, KS (67563)

6:09 AM CST on December 29, 2014 (GMT -0600)
Backyard Weather | Change Station
CLOSE
Current Station
Personal Weather Station
Location: Kinsley, KS
Elevation: 2168 ft
Nearby Weather Stations
Active Advisory: Winter Weather Advisory

Elev 2168 ft 37.93 °N, 99.41 °W | Updated 10 seconds ago

Clear
Clear
17.0 °F
Feels Like 17 °F
N
0.0
Wind Variable Wind from ESE
Gusts 1.0 mph

Today
High -- | Low -- °F
--% Chance of Precip.
Yesterday
High -- | Low -- °F
Precip. -- in
7:53 AM 5:27 PM
First Quarter, 58% visible
Pressure 30.14 in
Visibility 9.0 miles
Clouds Clear
Windchill 17 °F
Dew Point 13 °F
Humidity 84%
Rainfall 0.00 in
Snow Depth Not available.
UV 0 out of 12
Pollen .10 out of 12
Air Quality Not available.
Flu Activity Not available.
METAR KDDC 291152Z AUTO 08003KT 9SM CLR M08/M10 A3006 RMK AO2 SLP205 T10781100 11050 21089 51007

More Conditions Fewer Conditions

Pressure 30.14 in
Visibility 9.0 miles
Clouds Clear
Windchill 17 °F
Dew Point 13 °F
Humidity 84%
Rainfall 0.00 in
Snow Depth Not available.
UV 0 out of 12
Pollen .10 out of 12
Air Quality Not available.
Flu Activity Not available.
METAR KDDC 291152Z AUTO 08003KT 9SM CLR M08/M10 A3006 RMK AO2 SLP205 T10781100 11050 21089 51007

More Conditions Fewer Conditions

10-Day Weather Forecast

Almanac

Astronomy

Dec. 29, 2014 Rise Set
Actual Time
Civil Twilight
Nautical Twilight
Astronomical Twilight
Moon
Length of Visible Light
Length of Day
Tomorrow will be .
, % of the Moon is Illuminated

Today's Extremes

State Highs State Lows

Community

WunderPhotos

Upload Photos

1,781,573 photos uploaded!

WunderBlogs® & News

Nearby

Air Quality

  Air Quality AQ Index Pollutant
Not available.

Snow Depth

Station Depth Elevation

Earthquake Activity

City Distance Mag. Time & Date
Minimum magnitude displayed is 2.5.

Coastal Water Temperatures

Place Temperature

Nearby Weather Stations